Time,TemperatureF,DewpointF,PressureIn,WindDirection,WindDirectionDegrees,WindSpeedMPH,WindSpeedGustMPH,Humidity,HourlyPrecipIn,Conditions,Clouds,dailyrainin,SoftwareType,DateUTC
2013-03-14 00:00:00,10.8,5.3,30.30,NW,307,0.0,0.0,78,0.00,,---,0.05,VWS V13.01,2013-03-14 05:00:00,
2013-03-14 00:05:00,10.7,5.5,30.30,NW,308,0.0,0.0,79,0.00,,---,0.00,VWS V13.01,2013-03-14 05:05:00,
2013-03-14 00:10:00,10.5,5.3,30.30,NW,308,0.0,0.0,79,0.00,,---,0.00,VWS V13.01,2013-03-14 05:10:00,
2013-03-14 00:15:00,10.3,5.1,30.30,NW,308,0.0,0.0,79,0.00,,---,0.00,VWS V13.01,2013-03-14 05:15:00,
2013-03-14 00:20:00,10.2,5.0,30.30,NW,307,0.0,0.0,79,0.00,,---,0.00,VWS V13.01,2013-03-14 05:20:00,
2013-03-14 00:25:00,9.9,4.7,30.29,NW,308,0.0,0.0,79,0.00,,---,0.00,VWS V13.01,2013-03-14 05:25:00,
2013-03-14 00:31:00,9.6,4.4,30.29,NW,308,0.0,0.0,79,0.00,,---,0.00,VWS V13.01,2013-03-14 05:31:00,
2013-03-14 00:36:00,9.3,4.1,30.29,NW,308,0.0,0.0,79,0.00,,---,0.00,VWS V13.01,2013-03-14 05:36:00,
2013-03-14 00:41:00,9.1,3.9,30.29,NW,307,0.0,0.0,79,0.00,,---,0.00,VWS V13.01,2013-03-14 05:41:00,
2013-03-14 00:46:00,8.9,3.7,30.29,NW,308,0.0,0.0,79,0.00,,---,0.00,VWS V13.01,2013-03-14 05:46:00,
2013-03-14 00:51:00,8.8,3.6,30.29,NW,308,0.0,1.0,79,0.00,,---,0.00,VWS V13.01,2013-03-14 05:51:00,
2013-03-14 00:56:00,8.5,3.1,30.29,NW,308,0.0,1.0,78,0.00,,---,0.00,VWS V13.01,2013-03-14 05:56:00,
2013-03-14 01:01:00,8.3,2.9,30.29,NW,307,0.0,1.0,78,0.00,,---,0.00,VWS V13.01,2013-03-14 06:01:00,
2013-03-14 01:06:00,8.0,2.6,30.29,NW,308,0.0,0.0,78,0.00,,---,0.00,VWS V13.01,2013-03-14 06:06:00,
2013-03-14 01:12:00,7.7,2.3,30.29,NW,308,0.0,0.0,78,0.00,,---,0.00,VWS V13.01,2013-03-14 06:12:00,
2013-03-14 01:17:00,7.4,2.0,30.29,NW,307,0.0,0.0,78,0.00,,---,0.00,VWS V13.01,2013-03-14 06:17:00,
2013-03-14 01:22:00,7.1,1.7,30.29,NW,307,0.0,0.0,78,0.00,,---,0.00,VWS V13.01,2013-03-14 06:22:00,
2013-03-14 01:27:00,7.0,1.9,30.29,NW,308,0.0,0.0,79,0.00,,---,0.00,VWS V13.01,2013-03-14 06:27:00,
2013-03-14 01:32:00,6.8,1.7,30.29,NW,308,0.0,0.0,79,0.00,,---,0.00,VWS V13.01,2013-03-14 06:32:00,
2013-03-14 01:37:00,6.8,1.7,30.29,NW,308,0.0,0.0,79,0.00,,---,0.00,VWS V13.01,2013-03-14 06:37:00,
2013-03-14 01:42:00,6.7,1.9,30.29,NW,307,0.0,0.0,80,0.00,,---,0.00,VWS V13.01,2013-03-14 06:42:00,
2013-03-14 01:47:00,6.6,1.8,30.29,NW,308,0.0,0.0,80,0.00,,---,0.00,VWS V13.01,2013-03-14 06:47:00,
2013-03-14 01:52:00,6.7,2.1,30.29,NW,308,0.0,0.0,81,0.00,,---,0.00,VWS V13.01,2013-03-14 06:52:00,
2013-03-14 01:57:00,6.7,2.1,30.29,NW,307,0.0,0.0,81,0.00,,---,0.00,VWS V13.01,2013-03-14 06:57:00,
2013-03-14 02:02:00,6.7,2.1,30.29,NW,308,0.0,0.0,81,0.00,,---,0.00,VWS V13.01,2013-03-14 07:02:00,
2013-03-14 02:07:00,6.6,2.0,30.29,NW,308,0.0,0.0,81,0.00,,---,0.00,VWS V13.01,2013-03-14 07:07:00,
2013-03-14 02:12:00,6.6,2.0,30.29,NW,308,0.0,0.0,81,0.00,,---,0.00,VWS V13.01,2013-03-14 07:12:00,
2013-03-14 02:17:00,6.6,2.0,30.29,NW,307,0.0,0.0,81,0.00,,---,0.00,VWS V13.01,2013-03-14 07:17:00,
2013-03-14 02:22:00,6.5,1.9,30.29,NW,307,0.0,0.0,81,0.00,,---,0.00,VWS V13.01,2013-03-14 07:22:00,
2013-03-14 02:27:00,6.4,1.8,30.29,NW,308,0.0,0.0,81,0.00,,---,0.00,VWS V13.01,2013-03-14 07:27:00,
2013-03-14 02:32:00,6.4,1.8,30.29,NW,308,0.0,0.0,81,0.00,,---,0.00,VWS V13.01,2013-03-14 07:32:00,
2013-03-14 02:37:00,6.3,1.7,30.29,NW,307,0.0,0.0,81,0.00,,---,0.00,VWS V13.01,2013-03-14 07:37:00,
2013-03-14 02:43:00,6.2,1.6,30.29,NW,308,0.0,0.0,81,0.00,,---,0.00,VWS V13.01,2013-03-14 07:43:00,
2013-03-14 02:48:00,6.1,1.5,30.29,NW,308,0.0,0.0,81,0.00,,---,0.00,VWS V13.01,2013-03-14 07:48:00,
2013-03-14 02:53:00,5.9,1.1,30.29,NW,308,0.0,0.0,80,0.00,,---,0.00,VWS V13.01,2013-03-14 07:53:00,
2013-03-14 02:58:00,5.9,1.1,30.29,NW,308,0.0,0.0,80,0.00,,---,0.00,VWS V13.01,2013-03-14 07:58:00,
2013-03-14 03:03:00,5.7,0.9,30.28,NW,308,0.0,0.0,80,0.00,,---,0.00,VWS V13.01,2013-03-14 08:03:00,
2013-03-14 03:08:00,5.6,0.8,30.28,NW,308,0.0,0.0,80,0.00,,---,0.00,VWS V13.01,2013-03-14 08:08:00,
2013-03-14 03:13:00,5.5,0.7,30.28,NW,307,0.0,0.0,80,0.00,,---,0.00,VWS V13.01,2013-03-14 08:13:00,
2013-03-14 03:18:00,5.4,0.6,30.28,NW,307,0.0,0.0,80,0.00,,---,0.00,VWS V13.01,2013-03-14 08:18:00,
2013-03-14 03:23:00,5.3,0.5,30.28,NW,308,0.0,0.0,80,0.00,,---,0.00,VWS V13.01,2013-03-14 08:23:00,
2013-03-14 03:28:00,5.2,0.4,30.28,NW,308,0.0,0.0,80,0.00,,---,0.00,VWS V13.01,2013-03-14 08:28:00,
2013-03-14 03:33:00,5.1,0.3,30.28,NW,308,0.0,0.0,80,0.00,,---,0.00,VWS V13.01,2013-03-14 08:33:00,
2013-03-14 03:38:00,4.9,0.1,30.28,NW,307,0.0,0.0,80,0.00,,---,0.00,VWS V13.01,2013-03-14 08:38:00,
2013-03-14 03:43:00,4.8,0.0,30.28,NW,308,0.0,0.0,80,0.00,,---,0.00,VWS V13.01,2013-03-14 08:43:00,
2013-03-14 03:48:00,4.6,-0.2,30.28,NW,308,0.0,0.0,80,0.00,,---,0.00,VWS V13.01,2013-03-14 08:48:00,
2013-03-14 03:53:00,4.4,-0.4,30.28,NW,307,0.0,0.0,80,0.00,,---,0.00,VWS V13.01,2013-03-14 08:53:00,
2013-03-14 03:58:00,4.2,-0.6,30.28,NW,307,0.0,0.0,80,0.00,,---,0.00,VWS V13.01,2013-03-14 08:58:00,
2013-03-14 04:03:00,4.0,-1.0,30.28,NW,308,0.0,0.0,79,0.00,,---,0.00,VWS V13.01,2013-03-14 09:03:00,
2013-03-14 04:08:00,3.7,-1.3,30.28,NW,308,0.0,0.0,79,0.00,,---,0.00,VWS V13.01,2013-03-14 09:08:00,
2013-03-14 04:13:00,3.5,-1.5,30.28,NW,307,0.0,0.0,79,0.00,,---,0.00,VWS V13.01,2013-03-14 09:13:00,
2013-03-14 04:18:00,3.3,-1.7,30.28,NW,308,0.0,0.0,79,0.00,,---,0.00,VWS V13.01,2013-03-14 09:18:00,
2013-03-14 04:23:00,3.2,-1.6,30.28,NW,308,0.0,0.0,80,0.00,,---,0.00,VWS V13.01,2013-03-14 09:23:00,
2013-03-14 04:28:00,3.1,-1.7,30.28,NW,308,0.0,0.0,80,0.00,,---,0.00,VWS V13.01,2013-03-14 09:28:00,
2013-03-14 04:33:00,2.9,-1.9,30.28,NW,307,0.0,0.0,80,0.00,,---,0.00,VWS V13.01,2013-03-14 09:33:00,
2013-03-14 04:38:00,2.8,-2.0,30.28,NW,308,0.0,0.0,80,0.00,,---,0.00,VWS V13.01,2013-03-14 09:38:00,
2013-03-14 04:43:00,2.8,-1.7,30.28,NW,308,0.0,0.0,81,0.00,,---,0.00,VWS V13.01,2013-03-14 09:43:00,
2013-03-14 04:48:00,2.7,-1.8,30.28,NW,308,0.0,0.0,81,0.00,,---,0.00,VWS V13.01,2013-03-14 09:48:00,
2013-03-14 04:53:00,2.6,-1.9,30.28,NW,307,0.0,0.0,81,0.00,,---,0.00,VWS V13.01,2013-03-14 09:53:00,
2013-03-14 04:58:00,2.5,-1.7,30.28,NW,308,0.0,0.0,82,0.00,,---,0.00,VWS V13.01,2013-03-14 09:58:00,
2013-03-14 05:03:00,2.4,-1.8,30.28,NW,308,0.0,0.0,82,0.00,,---,0.00,VWS V13.01,2013-03-14 10:03:00,
2013-03-14 05:08:00,2.3,-1.9,30.28,NW,308,0.0,0.0,82,0.00,,---,0.00,VWS V13.01,2013-03-14 10:08:00,
2013-03-14 05:13:00,2.2,-2.0,30.28,NW,307,0.0,0.0,82,0.00,,---,0.00,VWS V13.01,2013-03-14 10:13:00,
2013-03-14 05:18:00,2.0,-2.5,30.28,NW,308,0.0,0.0,81,0.00,,---,0.00,VWS V13.01,2013-03-14 10:18:00,
2013-03-14 05:23:00,1.9,-2.6,30.28,NW,308,0.0,0.0,81,0.00,,---,0.00,VWS V13.01,2013-03-14 10:23:00,
2013-03-14 05:29:00,1.8,-2.7,30.28,NW,308,0.0,0.0,81,0.00,,---,0.00,VWS V13.01,2013-03-14 10:29:00,
2013-03-14 05:34:00,1.7,-2.8,30.28,NW,308,0.0,0.0,81,0.00,,---,0.00,VWS V13.01,2013-03-14 10:34:00,
2013-03-14 05:39:00,1.6,-2.6,30.29,NW,308,0.0,0.0,82,0.00,,---,0.00,VWS V13.01,2013-03-14 10:39:00,
2013-03-14 05:44:00,1.5,-2.7,30.29,NW,308,0.0,0.0,82,0.00,,---,0.00,VWS V13.01,2013-03-14 10:44:00,
2013-03-14 05:49:00,1.5,-2.7,30.29,NW,307,0.0,0.0,82,0.00,,---,0.00,VWS V13.01,2013-03-14 10:49:00,
2013-03-14 05:54:00,1.4,-2.8,30.29,NW,307,0.0,0.0,82,0.00,,---,0.00,VWS V13.01,2013-03-14 10:54:00,
2013-03-14 05:59:00,1.4,-2.8,30.29,NW,308,0.0,0.0,82,0.00,,---,0.00,VWS V13.01,2013-03-14 10:59:00,
2013-03-14 06:04:00,1.3,-2.9,30.29,NW,307,0.0,0.0,82,0.00,,---,0.00,VWS V13.01,2013-03-14 11:04:00,
2013-03-14 06:09:00,1.3,-2.9,30.29,NW,307,0.0,0.0,82,0.00,,---,0.00,VWS V13.01,2013-03-14 11:09:00,
2013-03-14 06:14:00,1.1,-3.1,30.29,NW,308,0.0,0.0,82,0.00,,---,0.00,VWS V13.01,2013-03-14 11:14:00,
2013-03-14 06:19:00,1.0,-3.2,30.29,NW,308,0.0,0.0,82,0.00,,---,0.00,VWS V13.01,2013-03-14 11:19:00,
2013-03-14 06:24:00,0.9,-3.3,30.29,NW,308,0.0,0.0,82,0.00,,---,0.00,VWS V13.01,2013-03-14 11:24:00,
2013-03-14 06:29:00,0.8,-3.4,30.29,NW,307,0.0,0.0,82,0.00,,---,0.00,VWS V13.01,2013-03-14 11:29:00,
2013-03-14 06:34:00,0.8,-3.4,30.29,NW,308,0.0,0.0,82,0.00,,---,0.00,VWS V13.01,2013-03-14 11:34:00,
2013-03-14 06:39:00,0.7,-3.5,30.29,NW,308,0.0,0.0,82,0.00,,---,0.00,VWS V13.01,2013-03-14 11:39:00,
2013-03-14 06:44:00,0.6,-3.6,30.29,NW,307,0.0,0.0,82,0.00,,---,0.00,VWS V13.01,2013-03-14 11:44:00,
2013-03-14 06:49:00,0.6,-3.6,30.29,NW,307,0.0,0.0,82,0.00,,---,0.00,VWS V13.01,2013-03-14 11:49:00,
2013-03-14 06:54:00,0.5,-3.7,30.29,NW,308,0.0,0.0,82,0.00,,---,0.00,VWS V13.01,2013-03-14 11:54:00,
2013-03-14 06:59:00,0.5,-3.7,30.29,NW,308,0.0,0.0,82,0.00,,---,0.00,VWS V13.01,2013-03-14 11:59:00,
2013-03-14 07:04:00,0.4,-3.8,30.29,NW,307,0.0,0.0,82,0.00,,---,0.00,VWS V13.01,2013-03-14 12:04:00,
2013-03-14 07:09:00,0.4,-3.8,30.29,NW,307,0.0,0.0,82,0.00,,---,0.00,VWS V13.01,2013-03-14 12:09:00,
2013-03-14 07:14:00,0.3,-3.9,30.29,NW,308,0.0,0.0,82,0.00,,---,0.00,VWS V13.01,2013-03-14 12:14:00,
2013-03-14 07:19:00,0.2,-4.0,30.29,NW,307,0.0,0.0,82,0.00,,---,0.00,VWS V13.01,2013-03-14 12:19:00,
2013-03-14 07:24:00,0.3,-3.6,30.29,NW,307,0.0,0.0,83,0.00,,---,0.00,VWS V13.01,2013-03-14 12:24:00,
2013-03-14 07:29:00,0.4,-3.5,30.29,NW,308,0.0,0.0,83,0.00,,---,0.00,VWS V13.01,2013-03-14 12:29:00,
2013-03-14 07:34:00,0.4,-3.5,30.30,NW,308,0.0,0.0,83,0.00,,---,0.00,VWS V13.01,2013-03-14 12:34:00,
2013-03-14 07:39:00,0.4,-3.5,30.30,NW,308,0.0,0.0,83,0.00,,---,0.00,VWS V13.01,2013-03-14 12:39:00,
2013-03-14 07:44:00,0.4,-3.5,30.30,NW,307,0.0,0.0,83,0.00,,---,0.00,VWS V13.01,2013-03-14 12:44:00,
2013-03-14 07:49:00,0.5,-3.4,30.30,NW,308,0.0,0.0,83,0.00,,---,0.00,VWS V13.01,2013-03-14 12:49:00,
2013-03-14 07:54:00,0.5,-3.4,30.30,NW,308,0.0,0.0,83,0.00,,---,0.00,VWS V13.01,2013-03-14 12:54:00,
2013-03-14 07:59:00,0.7,-3.2,30.29,NW,307,0.0,0.0,83,0.00,,---,0.00,VWS V13.01,2013-03-14 12:59:00,
2013-03-14 08:04:00,0.9,-3.0,30.29,NW,307,0.0,0.0,83,0.00,,---,0.00,VWS V13.01,2013-03-14 13:04:00,
2013-03-14 08:09:00,1.0,-2.9,30.29,NW,308,0.0,0.0,83,0.00,,---,0.00,VWS V13.01,2013-03-14 13:09:00,
2013-03-14 08:14:00,1.1,-2.8,30.29,NW,308,0.0,0.0,83,0.00,,---,0.00,VWS V13.01,2013-03-14 13:14:00,
2013-03-14 08:19:00,1.3,-2.4,30.30,NW,308,0.0,0.0,84,0.00,,---,0.00,VWS V13.01,2013-03-14 13:19:00,
2013-03-14 08:24:00,1.7,-2.0,30.30,NW,307,0.0,0.0,84,0.00,,---,0.00,VWS V13.01,2013-03-14 13:24:00,
2013-03-14 08:29:00,2.4,-1.1,30.30,NW,308,0.0,0.0,85,0.00,,---,0.00,VWS V13.01,2013-03-14 13:29:00,
2013-03-14 08:34:00,3.8,0.3,30.30,NW,308,0.0,0.0,85,0.00,,---,0.00,VWS V13.01,2013-03-14 13:34:00,
2013-03-14 08:39:00,4.9,0.6,30.30,NW,307,0.0,0.0,82,0.00,,---,0.00,VWS V13.01,2013-03-14 13:39:00,
2013-03-14 08:44:00,5.3,0.5,30.30,NW,307,0.0,0.0,80,0.00,,---,0.00,VWS V13.01,2013-03-14 13:44:00,
2013-03-14 08:49:00,5.5,0.4,30.30,NW,308,0.0,0.0,79,0.00,,---,0.00,VWS V13.01,2013-03-14 13:49:00,
2013-03-14 08:55:00,6.2,1.1,30.30,NW,308,0.0,0.0,79,0.00,,---,0.00,VWS V13.01,2013-03-14 13:55:00,
2013-03-14 09:00:00,8.1,3.5,30.30,NW,307,0.0,0.0,81,0.00,,---,0.00,VWS V13.01,2013-03-14 14:00:00,
2013-03-14 09:05:00,9.8,4.6,30.30,NW,308,0.0,0.0,79,0.00,,---,0.00,VWS V13.01,2013-03-14 14:05:00,
2013-03-14 09:10:00,11.2,5.4,30.30,NW,308,0.0,0.0,77,0.00,,---,0.00,VWS V13.01,2013-03-14 14:10:00,
2013-03-14 09:15:00,12.5,6.1,30.30,NW,308,0.0,0.0,75,0.00,,---,0.00,VWS V13.01,2013-03-14 14:15:00,
2013-03-14 09:20:00,13.6,6.6,30.30,NW,307,0.0,0.0,73,0.00,,---,0.00,VWS V13.01,2013-03-14 14:20:00,
2013-03-14 09:25:00,14.3,6.9,30.30,NW,308,0.0,0.0,72,0.00,,---,0.00,VWS V13.01,2013-03-14 14:25:00,
2013-03-14 09:30:00,14.6,7.5,30.30,NW,308,0.0,0.0,73,0.00,,---,0.00,VWS V13.01,2013-03-14 14:30:00,
2013-03-14 09:35:00,14.9,7.2,30.29,NW,307,0.0,0.0,71,0.00,,---,0.00,VWS V13.01,2013-03-14 14:35:00,
2013-03-14 09:40:00,15.7,7.7,30.29,NW,307,0.0,0.0,70,0.00,,---,0.00,VWS V13.01,2013-03-14 14:40:00,
2013-03-14 09:45:00,15.9,7.5,30.29,NW,308,0.0,0.0,69,0.00,,---,0.00,VWS V13.01,2013-03-14 14:45:00,
2013-03-14 09:50:00,16.6,7.9,30.28,NW,308,0.0,0.0,68,0.00,,---,0.00,VWS V13.01,2013-03-14 14:50:00,
2013-03-14 09:55:00,17.6,8.9,30.28,NW,308,0.0,0.0,68,0.00,,---,0.00,VWS V13.01,2013-03-14 14:55:00,
2013-03-14 10:00:00,19.0,9.9,30.28,NW,307,0.0,0.0,67,0.00,,---,0.00,VWS V13.01,2013-03-14 15:00:00,
2013-03-14 10:05:00,20.3,10.1,30.27,NW,308,0.0,0.0,64,0.00,,---,0.00,VWS V13.01,2013-03-14 15:05:00,
2013-03-14 10:10:00,21.0,10.4,30.27,NW,308,0.0,1.0,63,0.00,,---,0.00,VWS V13.01,2013-03-14 15:10:00,
2013-03-14 10:15:00,21.4,10.1,30.26,NW,307,0.0,1.0,61,0.00,,---,0.00,VWS V13.01,2013-03-14 15:15:00,
2013-03-14 10:20:00,22.0,10.6,30.26,NW,308,0.0,1.0,61,0.00,,---,0.00,VWS V13.01,2013-03-14 15:20:00,
2013-03-14 10:25:00,23.3,12.2,30.26,NW,308,0.0,1.0,62,0.00,,---,0.00,VWS V13.01,2013-03-14 15:25:00,
2013-03-14 10:30:00,24.4,11.8,30.25,WNW,295,0.0,2.0,58,0.00,,---,0.00,VWS V13.01,2013-03-14 15:30:00,
2013-03-14 10:35:00,25.3,13.0,30.25,SSW,207,1.0,3.0,59,0.00,,---,0.00,VWS V13.01,2013-03-14 15:35:00,
2013-03-14 10:40:00,26.2,12.2,30.25,SSW,208,1.0,4.0,55,0.00,,---,0.00,VWS V13.01,2013-03-14 15:40:00,
2013-03-14 10:45:00,26.8,13.2,30.25,SSW,208,1.0,4.0,56,0.00,,---,0.00,VWS V13.01,2013-03-14 15:45:00,
2013-03-14 10:50:00,27.1,11.8,30.25,SSW,202,2.0,5.0,52,0.00,,---,0.00,VWS V13.01,2013-03-14 15:50:00,
2013-03-14 10:55:00,27.3,12.4,30.24,SSW,195,1.0,5.0,53,0.00,,---,0.00,VWS V13.01,2013-03-14 15:55:00,
2013-03-14 11:00:00,27.9,12.6,30.25,SSW,201,3.0,5.0,52,0.00,,---,0.00,VWS V13.01,2013-03-14 16:00:00,
2013-03-14 11:05:00,28.1,12.3,30.24,South,187,1.0,3.0,51,0.00,,---,0.00,VWS V13.01,2013-03-14 16:05:00,
2013-03-14 11:10:00,28.3,12.1,30.24,SSW,200,1.0,4.0,50,0.00,,---,0.00,VWS V13.01,2013-03-14 16:10:00,
2013-03-14 11:15:00,28.8,12.1,30.24,South,190,3.0,6.0,49,0.00,,---,0.00,VWS V13.01,2013-03-14 16:15:00,
2013-03-14 11:20:00,29.2,12.4,30.25,SSW,192,5.0,6.0,49,0.00,,---,0.00,VWS V13.01,2013-03-14 16:20:00,
2013-03-14 11:25:00,29.9,12.6,30.25,West,265,1.0,6.0,48,0.00,,---,0.00,VWS V13.01,2013-03-14 16:25:00,
2013-03-14 11:30:00,29.8,12.5,30.25,SSW,192,2.0,6.0,48,0.00,,---,0.00,VWS V13.01,2013-03-14 16:30:00,
2013-03-14 11:35:00,30.0,12.7,30.25,South,186,3.0,4.0,48,0.00,,---,0.00,VWS V13.01,2013-03-14 16:35:00,
2013-03-14 11:40:00,30.5,14.1,30.25,SSW,198,2.0,6.0,50,0.00,,---,0.00,VWS V13.01,2013-03-14 16:40:00,
2013-03-14 11:45:00,29.9,12.1,30.25,South,176,5.0,10.0,47,0.00,,---,0.01,VWS V13.01,2013-03-14 16:45:00,
2013-03-14 11:50:00,29.9,13.5,30.24,West,267,0.0,10.0,50,0.01,,---,0.01,VWS V13.01,2013-03-14 16:50:00,
2013-03-14 11:55:00,30.4,12.6,30.23,SW,228,3.0,10.0,47,0.01,,---,0.01,VWS V13.01,2013-03-14 16:55:00,
2013-03-14 12:00:00,30.7,13.4,30.23,West,275,2.0,10.0,48,0.01,,---,0.01,VWS V13.01,2013-03-14 17:00:00,
2013-03-14 12:05:00,30.7,12.4,30.24,South,180,1.0,4.0,46,0.01,,---,0.01,VWS V13.01,2013-03-14 17:05:00,
2013-03-14 12:10:00,30.8,14.8,30.23,South,175,3.0,5.0,51,0.01,,---,0.01,VWS V13.01,2013-03-14 17:10:00,
2013-03-14 12:15:00,30.8,12.5,30.23,South,184,1.0,9.0,46,0.01,,---,0.01,VWS V13.01,2013-03-14 17:15:00,
2013-03-14 12:20:00,31.0,12.2,30.23,South,181,1.0,9.0,45,0.01,,---,0.01,VWS V13.01,2013-03-14 17:20:00,
2013-03-14 12:25:00,31.8,13.9,30.22,SW,226,3.0,9.0,47,0.01,,---,0.01,VWS V13.01,2013-03-14 17:25:00,
2013-03-14 12:30:00,32.0,15.0,30.21,SSW,200,3.0,9.0,49,0.01,,---,0.01,VWS V13.01,2013-03-14 17:30:00,
2013-03-14 12:36:00,32.0,13.1,30.21,South,181,3.0,5.0,45,0.02,,---,0.02,VWS V13.01,2013-03-14 17:36:00,
2013-03-14 12:41:00,32.4,13.9,30.22,SSW,202,4.0,6.0,46,0.02,,---,0.02,VWS V13.01,2013-03-14 17:41:00,
2013-03-14 12:46:00,32.6,14.1,30.21,SE,139,0.0,6.0,46,0.02,,---,0.02,VWS V13.01,2013-03-14 17:46:00,
2013-03-14 12:51:00,33.5,13.4,30.22,NW,326,0.0,6.0,43,0.02,,---,0.02,VWS V13.01,2013-03-14 17:51:00,
2013-03-14 12:56:00,33.5,14.9,30.23,NW,324,1.0,6.0,46,0.03,,---,0.03,VWS V13.01,2013-03-14 17:56:00,
2013-03-14 13:01:00,33.4,13.9,30.23,South,190,2.0,6.0,44,0.03,,---,0.03,VWS V13.01,2013-03-14 18:01:00,
2013-03-14 13:06:00,33.3,14.8,30.22,South,183,1.0,5.0,46,0.02,,---,0.03,VWS V13.01,2013-03-14 18:06:00,
2013-03-14 13:11:00,33.9,13.2,30.22,WSW,254,0.0,5.0,42,0.03,,---,0.04,VWS V13.01,2013-03-14 18:11:00,
2013-03-14 13:16:00,34.4,14.8,30.22,West,264,0.0,5.0,44,0.03,,---,0.04,VWS V13.01,2013-03-14 18:16:00,
2013-03-14 13:21:00,35.0,14.8,30.22,NW,311,1.0,5.0,43,0.03,,---,0.04,VWS V13.01,2013-03-14 18:21:00,
2013-03-14 13:27:00,34.4,14.2,30.21,WNW,288,2.0,5.0,43,0.04,,---,0.05,VWS V13.01,2013-03-14 18:27:00,
2013-03-14 13:32:00,34.7,15.6,30.21,WSW,249,2.0,5.0,45,0.04,,---,0.05,VWS V13.01,2013-03-14 18:32:00,
2013-03-14 13:37:00,35.0,14.2,30.19,SSW,194,3.0,9.0,42,0.04,,---,0.06,VWS V13.01,2013-03-14 18:37:00,
2013-03-14 13:42:00,34.4,14.2,30.19,SSW,199,2.0,10.0,43,0.04,,---,0.06,VWS V13.01,2013-03-14 18:42:00,
2013-03-14 13:47:00,35.1,14.9,30.19,SSW,194,6.0,10.0,43,0.04,,---,0.06,VWS V13.01,2013-03-14 18:47:00,
2013-03-14 13:52:00,34.8,14.6,30.19,South,191,6.0,11.0,43,0.04,,---,0.06,VWS V13.01,2013-03-14 18:52:00,
2013-03-14 13:57:00,34.8,15.6,30.18,South,181,5.0,11.0,45,0.04,,---,0.06,VWS V13.01,2013-03-14 18:57:00,
2013-03-14 14:02:00,34.9,16.2,30.17,SSW,194,3.0,11.0,46,0.04,,---,0.06,VWS V13.01,2013-03-14 19:02:00,
2013-03-14 14:07:00,35.4,15.7,30.17,South,184,1.0,9.0,44,0.03,,---,0.06,VWS V13.01,2013-03-14 19:07:00,
2013-03-14 14:12:00,36.7,16.3,30.17,West,262,2.0,9.0,43,0.03,,---,0.06,VWS V13.01,2013-03-14 19:12:00,
2013-03-14 14:17:00,36.6,15.7,30.17,South,184,2.0,9.0,42,0.03,,---,0.06,VWS V13.01,2013-03-14 19:17:00,
2013-03-14 14:22:00,36.3,15.4,30.17,NW,304,1.0,10.0,42,0.03,,---,0.06,VWS V13.01,2013-03-14 19:22:00,
2013-03-14 14:27:00,37.2,16.8,30.17,WSW,244,0.0,10.0,43,0.03,,---,0.06,VWS V13.01,2013-03-14 19:27:00,
2013-03-14 14:32:00,37.3,15.2,30.17,West,277,3.0,11.0,40,0.04,,---,0.07,VWS V13.01,2013-03-14 19:32:00,
2013-03-14 14:37:00,37.4,16.4,30.17,WNW,296,2.0,10.0,42,0.02,,---,0.07,VWS V13.01,2013-03-14 19:37:00,
2013-03-14 14:42:00,37.3,16.3,30.17,SW,233,6.0,10.0,42,0.02,,---,0.07,VWS V13.01,2013-03-14 19:42:00,
2013-03-14 14:47:00,37.3,16.9,30.17,WSW,242,2.0,10.0,43,0.02,,---,0.07,VWS V13.01,2013-03-14 19:47:00,
2013-03-14 14:52:00,37.0,16.1,30.17,SSW,211,2.0,10.0,42,0.03,,---,0.08,VWS V13.01,2013-03-14 19:52:00,
2013-03-14 14:57:00,37.3,17.4,30.17,NNW,340,0.0,10.0,44,0.03,,---,0.08,VWS V13.01,2013-03-14 19:57:00,
2013-03-14 15:02:00,37.4,19.0,30.17,North,5,1.0,3.0,47,0.03,,---,0.08,VWS V13.01,2013-03-14 20:02:00,
2013-03-14 15:07:00,37.3,15.8,30.17,West,277,1.0,9.0,41,0.02,,---,0.08,VWS V13.01,2013-03-14 20:07:00,
2013-03-14 15:12:00,37.1,17.2,30.16,South,185,2.0,9.0,44,0.02,,---,0.08,VWS V13.01,2013-03-14 20:12:00,
2013-03-14 15:17:00,37.3,17.9,30.16,SW,214,4.0,9.0,45,0.03,,---,0.09,VWS V13.01,2013-03-14 20:17:00,
2013-03-14 15:22:00,37.3,16.9,30.15,WSW,253,6.0,9.0,43,0.03,,---,0.09,VWS V13.01,2013-03-14 20:22:00,
2013-03-14 15:27:00,37.1,16.7,30.15,South,181,3.0,9.0,43,0.03,,---,0.09,VWS V13.01,2013-03-14 20:27:00,
2013-03-14 15:32:00,37.2,19.3,30.16,South,186,1.0,1.0,48,0.03,,---,0.09,VWS V13.01,2013-03-14 20:32:00,
2013-03-14 15:37:00,37.5,18.1,30.16,WNW,300,2.0,6.0,45,0.02,,---,0.09,VWS V13.01,2013-03-14 20:37:00,
2013-03-14 15:42:00,37.5,17.6,30.16,West,260,2.0,7.0,44,0.02,,---,0.09,VWS V13.01,2013-03-14 20:42:00,
2013-03-14 15:47:00,37.6,18.2,30.15,WSW,256,5.0,7.0,45,0.03,,---,0.10,VWS V13.01,2013-03-14 20:47:00,
2013-03-14 15:53:00,37.5,18.1,30.14,SSW,209,2.0,11.0,45,0.03,,---,0.10,VWS V13.01,2013-03-14 20:53:00,
2013-03-14 15:58:00,37.7,18.8,30.14,SSW,202,3.0,11.0,46,0.03,,---,0.10,VWS V13.01,2013-03-14 20:58:00,
2013-03-14 16:03:00,37.9,18.5,30.12,South,178,3.0,5.0,45,0.03,,---,0.10,VWS V13.01,2013-03-14 21:03:00,
2013-03-14 16:08:00,37.6,18.7,30.11,WSW,250,5.0,6.0,46,0.02,,---,0.10,VWS V13.01,2013-03-14 21:08:00,
2013-03-14 16:13:00,37.9,19.0,30.11,WNW,284,5.0,10.0,46,0.02,,---,0.10,VWS V13.01,2013-03-14 21:13:00,
2013-03-14 16:18:00,37.6,18.7,30.11,SW,232,4.0,10.0,46,0.02,,---,0.10,VWS V13.01,2013-03-14 21:18:00,
2013-03-14 16:23:00,37.2,18.8,30.11,SW,233,3.0,10.0,47,0.02,,---,0.10,VWS V13.01,2013-03-14 21:23:00,
2013-03-14 16:28:00,36.9,19.5,30.11,West,277,4.0,10.0,49,0.02,,---,0.10,VWS V13.01,2013-03-14 21:28:00,
2013-03-14 16:33:00,37.0,19.1,30.11,WSW,241,3.0,4.0,48,0.02,,---,0.10,VWS V13.01,2013-03-14 21:33:00,
2013-03-14 16:38:00,37.1,19.2,30.11,West,265,1.0,6.0,48,0.01,,---,0.10,VWS V13.01,2013-03-14 21:38:00,
2013-03-14 16:43:00,37.1,19.7,30.12,West,275,2.0,6.0,49,0.01,,---,0.10,VWS V13.01,2013-03-14 21:43:00,
2013-03-14 16:48:00,36.7,19.4,30.12,WSW,250,5.0,6.0,49,0.01,,---,0.10,VWS V13.01,2013-03-14 21:48:00,
2013-03-14 16:53:00,36.6,20.2,30.12,SW,227,0.0,7.0,51,0.01,,---,0.10,VWS V13.01,2013-03-14 21:53:00,
2013-03-14 16:58:00,36.8,20.4,30.11,WSW,252,2.0,7.0,51,0.01,,---,0.10,VWS V13.01,2013-03-14 21:58:00,
2013-03-14 17:03:00,37.2,19.8,30.10,SSW,209,0.0,5.0,49,0.02,,---,0.11,VWS V13.01,2013-03-14 22:03:00,
2013-03-14 17:08:00,37.2,20.3,30.10,SSW,192,1.0,7.0,50,0.01,,---,0.11,VWS V13.01,2013-03-14 22:08:00,
2013-03-14 17:13:00,37.0,21.0,30.10,WSW,246,0.0,7.0,52,0.01,,---,0.11,VWS V13.01,2013-03-14 22:13:00,
2013-03-14 17:18:00,36.9,20.9,30.10,West,260,3.0,7.0,52,0.01,,---,0.11,VWS V13.01,2013-03-14 22:18:00,
2013-03-14 17:23:00,36.8,20.4,30.10,SSW,200,2.0,7.0,51,0.01,,---,0.11,VWS V13.01,2013-03-14 22:23:00,
2013-03-14 17:28:00,36.7,20.8,30.09,WSW,252,2.0,8.0,52,0.01,,---,0.11,VWS V13.01,2013-03-14 22:28:00,
2013-03-14 17:33:00,36.6,21.1,30.09,WSW,256,2.0,2.0,53,0.01,,---,0.11,VWS V13.01,2013-03-14 22:33:00,
2013-03-14 17:38:00,36.4,20.5,30.09,WSW,244,2.0,5.0,52,0.01,,---,0.11,VWS V13.01,2013-03-14 22:38:00,
2013-03-14 17:43:00,36.0,20.1,30.09,WSW,247,2.0,6.0,52,0.01,,---,0.11,VWS V13.01,2013-03-14 22:43:00,
2013-03-14 17:48:00,35.8,20.4,30.09,WSW,246,0.0,6.0,53,0.01,,---,0.11,VWS V13.01,2013-03-14 22:48:00,
2013-03-14 17:53:00,35.8,20.8,30.09,WNW,284,2.0,6.0,54,0.01,,---,0.11,VWS V13.01,2013-03-14 22:53:00,
2013-03-14 17:58:00,35.6,20.6,30.08,SSW,198,1.0,6.0,54,0.01,,---,0.11,VWS V13.01,2013-03-14 22:58:00,
2013-03-14 18:03:00,35.5,20.1,30.08,WSW,257,5.0,5.0,53,0.00,,---,0.11,VWS V13.01,2013-03-14 23:03:00,
2013-03-14 18:08:00,35.3,20.8,30.07,SSW,199,0.0,8.0,55,0.00,,---,0.11,VWS V13.01,2013-03-14 23:08:00,
2013-03-14 18:13:00,35.0,20.5,30.07,West,259,0.0,8.0,55,0.00,,---,0.11,VWS V13.01,2013-03-14 23:13:00,
2013-03-14 18:18:00,34.7,21.5,30.06,WSW,240,2.0,9.0,58,0.00,,---,0.11,VWS V13.01,2013-03-14 23:18:00,
2013-03-14 18:23:00,34.6,21.4,30.06,South,190,2.0,9.0,58,0.00,,---,0.11,VWS V13.01,2013-03-14 23:23:00,
2013-03-14 18:28:00,34.4,21.2,30.07,SW,223,2.0,9.0,58,0.00,,---,0.11,VWS V13.01,2013-03-14 23:28:00,
2013-03-14 18:33:00,34.4,22.0,30.07,WSW,253,2.0,4.0,60,0.00,,---,0.11,VWS V13.01,2013-03-14 23:33:00,
2013-03-14 18:38:00,34.3,21.9,30.08,West,261,3.0,6.0,60,0.00,,---,0.11,VWS V13.01,2013-03-14 23:38:00,
2013-03-14 18:43:00,34.1,22.1,30.07,SW,234,1.0,6.0,61,0.00,,---,0.11,VWS V13.01,2013-03-14 23:43:00,
2013-03-14 18:48:00,33.9,22.3,30.07,WSW,252,1.0,6.0,62,0.00,,---,0.11,VWS V13.01,2013-03-14 23:48:00,
2013-03-14 18:53:00,33.8,22.5,30.08,West,263,2.0,6.0,63,0.00,,---,0.11,VWS V13.01,2013-03-14 23:53:00,
2013-03-14 18:58:00,33.8,22.9,30.07,West,260,4.0,6.0,64,0.00,,---,0.11,VWS V13.01,2013-03-14 23:58:00,
2013-03-14 19:03:00,33.9,23.0,30.06,WSW,250,2.0,5.0,64,0.00,,---,0.11,VWS V13.01,2013-03-15 00:03:00,
2013-03-14 19:08:00,33.8,23.3,30.06,WSW,256,3.0,5.0,65,0.00,,---,0.11,VWS V13.01,2013-03-15 00:08:00,
2013-03-14 19:13:00,33.8,22.9,30.06,WSW,253,3.0,5.0,64,0.00,,---,0.11,VWS V13.01,2013-03-15 00:13:00,
2013-03-14 19:18:00,33.6,22.7,30.05,SSW,199,2.0,5.0,64,0.00,,---,0.11,VWS V13.01,2013-03-15 00:18:00,